sensor_id;sensor_type;location;lat;lon;timestamp;pressure;altitude;pressure_sealevel;temperature;humidity
10135;BME280;5107;48.850;8.924;2022-09-09T00:00:26;96505.59;;;15.07;74.84
10135;BME280;5107;48.850;8.924;2022-09-09T00:03:02;96510.69;;;15.02;75.27
10135;BME280;5107;48.850;8.924;2022-09-09T00:05:41;96508.66;;;15.10;74.37
10135;BME280;5107;48.850;8.924;2022-09-09T00:08:18;96516.81;;;15.15;74.12
10135;BME280;5107;48.850;8.924;2022-09-09T00:10:50;96513.34;;;15.15;74.13
10135;BME280;5107;48.850;8.924;2022-09-09T00:13:25;96504.81;;;15.13;74.13
10135;BME280;5107;48.850;8.924;2022-09-09T00:16:00;96510.69;;;15.15;74.35
10135;BME280;5107;48.850;8.924;2022-09-09T00:18:38;96504.81;;;15.13;74.69
10135;BME280;5107;48.850;8.924;2022-09-09T00:21:12;96501.16;;;15.14;75.22
10135;BME280;5107;48.850;8.924;2022-09-09T00:23:47;96502.75;;;15.15;75.06
10135;BME280;5107;48.850;8.924;2022-09-09T00:26:27;96510.09;;;15.13;75.01
10135;BME280;5107;48.850;8.924;2022-09-09T00:29:05;96516.19;;;15.07;75.51
10135;BME280;5107;48.850;8.924;2022-09-09T00:31:36;96502.56;;;15.10;74.69
10135;BME280;5107;48.850;8.924;2022-09-09T00:34:12;96488.28;;;15.11;75.39
10135;BME280;5107;48.850;8.924;2022-09-09T00:36:40;96495.22;;;15.12;75.46
10135;BME280;5107;48.850;8.924;2022-09-09T00:39:25;96501.53;;;15.11;75.52
10135;BME280;5107;48.850;8.924;2022-09-09T00:42:10;96498.69;;;15.19;75.04
10135;BME280;5107;48.850;8.924;2022-09-09T00:44:55;96502.38;;;15.31;75.09
10135;BME280;5107;48.850;8.924;2022-09-09T00:47:44;96500.72;;;15.37;73.81
10135;BME280;5107;48.850;8.924;2022-09-09T00:50:29;96509.88;;;15.41;73.70
10135;BME280;5107;48.850;8.924;2022-09-09T00:53:10;96504.59;;;15.41;73.40
10135;BME280;5107;48.850;8.924;2022-09-09T00:55:46;96500.72;;;15.43;73.64
10135;BME280;5107;48.850;8.924;2022-09-09T00:58:16;96506.03;;;15.43;73.41
10135;BME280;5107;48.850;8.924;2022-09-09T01:00:46;96498.47;;;15.47;74.14
10135;BME280;5107;48.850;8.924;2022-09-09T01:03:34;96491.94;;;15.49;73.23
10135;BME280;5107;48.850;8.924;2022-09-09T01:06:19;96493.75;;;15.49;73.29
10135;BME280;5107;48.850;8.924;2022-09-09T01:09:15;96490.91;;;15.50;73.27
10135;BME280;5107;48.850;8.924;2022-09-09T01:11:55;96499.31;;;15.54;73.60
10135;BME280;5107;48.850;8.924;2022-09-09T01:14:42;96496.66;;;15.47;73.52
10135;BME280;5107;48.850;8.924;2022-09-09T01:17:17;96498.69;;;15.45;73.28
10135;BME280;5107;48.850;8.924;2022-09-09T01:20:04;96498.69;;;15.45;73.15
10135;BME280;5107;48.850;8.924;2022-09-09T01:22:52;96510.09;;;15.46;73.60
10135;BME280;5107;48.850;8.924;2022-09-09T01:26:11;96505.19;;;15.49;73.69
10135;BME280;5107;48.850;8.924;2022-09-09T01:28:44;96510.50;;;15.49;73.72
10135;BME280;5107;48.850;8.924;2022-09-09T01:31:18;96511.13;;;15.51;73.28
10135;BME280;5107;48.850;8.924;2022-09-09T01:33:47;96506.81;;;15.50;73.59
10135;BME280;5107;48.850;8.924;2022-09-09T01:36:24;96512.75;;;15.52;73.37
10135;BME280;5107;48.850;8.924;2022-09-09T01:38:54;96509.28;;;15.52;72.95
10135;BME280;5107;48.850;8.924;2022-09-09T01:41:23;96518.69;;;15.54;73.54
10135;BME280;5107;48.850;8.924;2022-09-09T01:43:59;96518.06;;;15.52;73.73
10135;BME280;5107;48.850;8.924;2022-09-09T01:46:29;96525.84;;;15.54;73.41
10135;BME280;5107;48.850;8.924;2022-09-09T01:49:00;96523.34;;;15.52;74.19
10135;BME280;5107;48.850;8.924;2022-09-09T01:51:29;96531.72;;;15.76;71.96
10135;BME280;5107;48.850;8.924;2022-09-09T01:54:00;96524.34;;;15.91;70.79
10135;BME280;5107;48.850;8.924;2022-09-09T01:56:40;96510.00;;;16.12;70.28
10135;BME280;5107;48.850;8.924;2022-09-09T01:59:44;96499.75;;;16.15;70.76
10135;BME280;5107;48.850;8.924;2022-09-09T02:02:17;96503.47;;;16.08;71.27
10135;BME280;5107;48.850;8.924;2022-09-09T02:04:58;96505.56;;;15.92;72.13
10135;BME280;5107;48.850;8.924;2022-09-09T02:07:38;96508.25;;;15.86;73.06
10135;BME280;5107;48.850;8.924;2022-09-09T02:10:21;96507.03;;;15.75;74.96
10135;BME280;5107;48.850;8.924;2022-09-09T02:13:08;96500.53;;;15.65;74.46
10135;BME280;5107;48.850;8.924;2022-09-09T02:15:43;96511.38;;;15.57;75.03
10135;BME280;5107;48.850;8.924;2022-09-09T02:18:15;96509.69;;;15.49;75.42
10135;BME280;5107;48.850;8.924;2022-09-09T02:20:46;96520.72;;;15.39;75.78
10135;BME280;5107;48.850;8.924;2022-09-09T02:23:15;96526.81;;;15.33;76.57
10135;BME280;5107;48.850;8.924;2022-09-09T02:25:45;96515.41;;;15.26;76.81
10135;BME280;5107;48.850;8.924;2022-09-09T02:28:22;96513.78;;;15.18;77.26
10135;BME280;5107;48.850;8.924;2022-09-09T02:30:51;96512.97;;;15.11;76.89
10135;BME280;5107;48.850;8.924;2022-09-09T02:33:27;96509.06;;;15.01;77.21
10135;BME280;5107;48.850;8.924;2022-09-09T02:35:55;96499.06;;;14.90;77.60
10135;BME280;5107;48.850;8.924;2022-09-09T02:38:32;96501.13;;;14.88;77.68
10135;BME280;5107;48.850;8.924;2022-09-09T02:41:07;96490.91;;;14.85;77.79
10135;BME280;5107;48.850;8.924;2022-09-09T02:43:37;96501.09;;;14.81;78.04
10135;BME280;5107;48.850;8.924;2022-09-09T02:46:24;96493.31;;;14.66;79.04
10135;BME280;5107;48.850;8.924;2022-09-09T02:48:59;96492.91;;;14.63;79.37
10135;BME280;5107;48.850;8.924;2022-09-09T02:51:37;96478.03;;;14.68;79.18
10135;BME280;5107;48.850;8.924;2022-09-09T02:54:16;96472.38;;;14.78;78.68
10135;BME280;5107;48.850;8.924;2022-09-09T02:56:52;96482.13;;;14.77;78.72
10135;BME280;5107;48.850;8.924;2022-09-09T02:59:25;96476.22;;;14.69;79.22
10135;BME280;5107;48.850;8.924;2022-09-09T03:01:53;96470.09;;;14.75;78.69
10135;BME280;5107;48.850;8.924;2022-09-09T03:04:20;96474.59;;;14.74;78.41
10135;BME280;5107;48.850;8.924;2022-09-09T03:06:48;96471.75;;;14.76;78.01
10135;BME280;5107;48.850;8.924;2022-09-09T03:09:19;96478.28;;;14.80;77.74
10135;BME280;5107;48.850;8.924;2022-09-09T03:11:46;96468.91;;;14.77;77.70
10135;BME280;5107;48.850;8.924;2022-09-09T03:14:15;96479.50;;;14.84;77.68
10135;BME280;5107;48.850;8.924;2022-09-09T03:16:48;96476.84;;;14.84;77.48
10135;BME280;5107;48.850;8.924;2022-09-09T03:19:15;96476.84;;;14.77;77.82
10135;BME280;5107;48.850;8.924;2022-09-09T03:21:42;96482.53;;;14.74;77.94
10135;BME280;5107;48.850;8.924;2022-09-09T03:24:09;96470.72;;;14.70;77.93
10135;BME280;5107;48.850;8.924;2022-09-09T03:26:36;96477.03;;;14.69;77.92
10135;BME280;5107;48.850;8.924;2022-09-09T03:29:06;96483.53;;;14.67;77.74
10135;BME280;5107;48.850;8.924;2022-09-09T03:31:33;96481.50;;;14.62;78.03
10135;BME280;5107;48.850;8.924;2022-09-09T03:34:03;96489.03;;;14.59;77.68
10135;BME280;5107;48.850;8.924;2022-09-09T03:36:33;96491.28;;;14.62;77.72
10135;BME280;5107;48.850;8.924;2022-09-09T03:39:00;96490.03;;;14.58;77.57
10135;BME280;5107;48.850;8.924;2022-09-09T03:41:30;96495.75;;;14.55;77.33
10135;BME280;5107;48.850;8.924;2022-09-09T03:43:59;96489.63;;;14.54;76.93
10135;BME280;5107;48.850;8.924;2022-09-09T03:46:30;96496.56;;;14.62;76.41
10135;BME280;5107;48.850;8.924;2022-09-09T03:48:58;96500.03;;;14.62;76.31
10135;BME280;5107;48.850;8.924;2022-09-09T03:51:27;96498.22;;;14.63;76.33
10135;BME280;5107;48.850;8.924;2022-09-09T03:53:54;96504.09;;;14.65;76.31
10135;BME280;5107;48.850;8.924;2022-09-09T03:56:22;96500.03;;;14.62;76.32
10135;BME280;5107;48.850;8.924;2022-09-09T03:58:49;96494.94;;;14.54;76.74
10135;BME280;5107;48.850;8.924;2022-09-09T04:01:18;96501.00;;;14.48;76.83
10135;BME280;5107;48.850;8.924;2022-09-09T04:03:45;96506.72;;;14.45;77.11
10135;BME280;5107;48.850;8.924;2022-09-09T04:06:13;96506.91;;;14.43;77.20
10135;BME280;5107;48.850;8.924;2022-09-09T04:08:45;96501.41;;;14.45;76.75
10135;BME280;5107;48.850;8.924;2022-09-09T04:11:14;96500.00;;;14.49;76.72
10135;BME280;5107;48.850;8.924;2022-09-09T04:13:43;96498.59;;;14.53;76.43
10135;BME280;5107;48.850;8.924;2022-09-09T04:16:12;96490.84;;;14.58;76.29
10135;BME280;5107;48.850;8.924;2022-09-09T04:18:41;96498.78;;;14.58;76.33
10135;BME280;5107;48.850;8.924;2022-09-09T04:21:09;96500.44;;;14.59;76.21
10135;BME280;5107;48.850;8.924;2022-09-09T04:23:38;96502.28;;;14.65;75.74
10135;BME280;5107;48.850;8.924;2022-09-09T04:26:07;96499.63;;;14.65;76.13
10135;BME280;5107;48.850;8.924;2022-09-09T04:28:36;96490.66;;;14.60;76.50
10135;BME280;5107;48.850;8.924;2022-09-09T04:31:16;96506.34;;;14.55;76.55
10135;BME280;5107;48.850;8.924;2022-09-09T04:33:44;96504.28;;;14.50;77.10
10135;BME280;5107;48.850;8.924;2022-09-09T04:36:12;96509.16;;;14.47;76.81
10135;BME280;5107;48.850;8.924;2022-09-09T04:38:40;96503.44;;;14.43;77.14
10135;BME280;5107;48.850;8.924;2022-09-09T04:41:08;96507.28;;;14.40;76.97
10135;BME280;5107;48.850;8.924;2022-09-09T04:43:38;96514.41;;;14.40;76.98
10135;BME280;5107;48.850;8.924;2022-09-09T04:46:07;96509.94;;;14.40;77.07
10135;BME280;5107;48.850;8.924;2022-09-09T04:48:34;96515.25;;;14.40;77.03
10135;BME280;5107;48.850;8.924;2022-09-09T04:51:05;96522.16;;;14.41;76.69
10135;BME280;5107;48.850;8.924;2022-09-09T04:53:34;96523.00;;;14.42;76.69
10135;BME280;5107;48.850;8.924;2022-09-09T04:56:04;96529.09;;;14.42;76.67
10135;BME280;5107;48.850;8.924;2022-09-09T04:58:36;96529.72;;;14.45;76.73
10135;BME280;5107;48.850;8.924;2022-09-09T05:01:06;96535.22;;;14.43;76.83
10135;BME280;5107;48.850;8.924;2022-09-09T05:03:35;96533.19;;;14.45;76.54
10135;BME280;5107;48.850;8.924;2022-09-09T05:06:07;96532.78;;;14.48;76.17
10135;BME280;5107;48.850;8.924;2022-09-09T05:08:36;96542.97;;;14.51;76.61
10135;BME280;5107;48.850;8.924;2022-09-09T05:11:11;96538.75;;;14.63;76.18
10135;BME280;5107;48.850;8.924;2022-09-09T05:13:40;96540.16;;;14.66;76.07
10135;BME280;5107;48.850;8.924;2022-09-09T05:16:08;96537.75;;;14.71;76.03
10135;BME280;5107;48.850;8.924;2022-09-09T05:18:37;96535.50;;;14.74;75.42
10135;BME280;5107;48.850;8.924;2022-09-09T05:21:06;96531.22;;;14.67;75.41
10135;BME280;5107;48.850;8.924;2022-09-09T05:23:33;96538.94;;;14.62;75.57
10135;BME280;5107;48.850;8.924;2022-09-09T05:26:02;96538.53;;;14.65;75.74
10135;BME280;5107;48.850;8.924;2022-09-09T05:28:29;96545.91;;;14.82;74.99
10135;BME280;5107;48.850;8.924;2022-09-09T05:31:00;96556.53;;;14.82;74.43
10135;BME280;5107;48.850;8.924;2022-09-09T05:33:31;96547.34;;;14.78;74.74
10135;BME280;5107;48.850;8.924;2022-09-09T05:36:02;96553.66;;;14.77;74.90
10135;BME280;5107;48.850;8.924;2022-09-09T05:38:30;96546.72;;;14.76;74.98
10135;BME280;5107;48.850;8.924;2022-09-09T05:40:58;96549.19;;;14.78;74.77
10135;BME280;5107;48.850;8.924;2022-09-09T05:43:26;96552.22;;;14.81;74.55
10135;BME280;5107;48.850;8.924;2022-09-09T05:46:04;96553.88;;;14.82;74.65
10135;BME280;5107;48.850;8.924;2022-09-09T05:48:35;96549.59;;;14.81;74.60
10135;BME280;5107;48.850;8.924;2022-09-09T05:51:06;96548.19;;;14.86;74.97
10135;BME280;5107;48.850;8.924;2022-09-09T05:53:35;96554.69;;;14.83;74.88
10135;BME280;5107;48.850;8.924;2022-09-09T05:56:05;96556.94;;;14.86;74.99
10135;BME280;5107;48.850;8.924;2022-09-09T05:58:34;96561.84;;;14.89;75.33
10135;BME280;5107;48.850;8.924;2022-09-09T06:01:08;96561.88;;;14.96;75.51
10135;BME280;5107;48.850;8.924;2022-09-09T06:03:37;96561.44;;;14.99;75.12
10135;BME280;5107;48.850;8.924;2022-09-09T06:06:08;96565.72;;;15.00;74.90
10135;BME280;5107;48.850;8.924;2022-09-09T06:08:37;96561.25;;;15.00;74.31
10135;BME280;5107;48.850;8.924;2022-09-09T06:11:08;96553.72;;;14.97;74.18
10135;BME280;5107;48.850;8.924;2022-09-09T06:13:36;96558.59;;;14.94;74.43
10135;BME280;5107;48.850;8.924;2022-09-09T06:16:09;96556.97;;;14.93;74.39
10135;BME280;5107;48.850;8.924;2022-09-09T06:18:38;96559.22;;;14.89;74.66
10135;BME280;5107;48.850;8.924;2022-09-09T06:21:09;96554.09;;;14.88;74.55
10135;BME280;5107;48.850;8.924;2022-09-09T06:23:39;96557.78;;;14.87;74.88
10135;BME280;5107;48.850;8.924;2022-09-09T06:26:11;96556.53;;;14.82;75.70
10135;BME280;5107;48.850;8.924;2022-09-09T06:28:38;96565.28;;;14.76;75.32
10135;BME280;5107;48.850;8.924;2022-09-09T06:31:09;96565.47;;;14.75;75.49
10135;BME280;5107;48.850;8.924;2022-09-09T06:33:39;96566.28;;;14.75;75.40
10135;BME280;5107;48.850;8.924;2022-09-09T06:36:12;96567.94;;;14.83;75.10
10135;BME280;5107;48.850;8.924;2022-09-09T06:38:39;96568.63;;;15.11;74.21
10135;BME280;5107;48.850;8.924;2022-09-09T06:41:08;96567.63;;;15.45;72.97
10135;BME280;5107;48.850;8.924;2022-09-09T06:43:36;96569.28;;;15.60;72.82
10135;BME280;5107;48.850;8.924;2022-09-09T06:46:08;96568.03;;;15.95;71.39
10135;BME280;5107;48.850;8.924;2022-09-09T06:48:35;96574.16;;;15.96;71.58
10135;BME280;5107;48.850;8.924;2022-09-09T06:51:05;96574.78;;;15.84;71.55
10135;BME280;5107;48.850;8.924;2022-09-09T06:53:33;96564.59;;;15.88;71.58
10135;BME280;5107;48.850;8.924;2022-09-09T06:56:02;96573.56;;;15.87;71.45
10135;BME280;5107;48.850;8.924;2022-09-09T06:58:30;96577.03;;;15.81;71.16
10135;BME280;5107;48.850;8.924;2022-09-09T07:01:04;96570.50;;;15.77;71.43
10135;BME280;5107;48.850;8.924;2022-09-09T07:03:33;96583.38;;;15.80;71.72
10135;BME280;5107;48.850;8.924;2022-09-09T07:06:01;96580.28;;;15.83;71.53
10135;BME280;5107;48.850;8.924;2022-09-09T07:08:30;96577.19;;;15.99;71.48
10135;BME280;5107;48.850;8.924;2022-09-09T07:11:03;96583.94;;;16.08;71.50
10135;BME280;5107;48.850;8.924;2022-09-09T07:13:34;96580.47;;;16.08;70.46
10135;BME280;5107;48.850;8.924;2022-09-09T07:16:04;96588.44;;;16.14;70.50
10135;BME280;5107;48.850;8.924;2022-09-09T07:18:33;96588.84;;;16.11;70.32
10135;BME280;5107;48.850;8.924;2022-09-09T07:21:03;96584.25;;;16.45;69.51
10135;BME280;5107;48.850;8.924;2022-09-09T07:23:31;96580.50;;;16.59;69.66
10135;BME280;5107;48.850;8.924;2022-09-09T07:25:58;96580.31;;;16.74;69.63
10135;BME280;5107;48.850;8.924;2022-09-09T07:28:26;96579.69;;;16.72;68.54
10135;BME280;5107;48.850;8.924;2022-09-09T07:30:55;96570.94;;;16.64;69.24
10135;BME280;5107;48.850;8.924;2022-09-09T07:33:23;96571.75;;;16.65;68.99
10135;BME280;5107;48.850;8.924;2022-09-09T07:35:52;96575.94;;;17.17;68.18
10135;BME280;5107;48.850;8.924;2022-09-09T07:38:20;96564.00;;;17.58;65.91
10135;BME280;5107;48.850;8.924;2022-09-09T07:40:48;96568.25;;;17.90;65.41
10135;BME280;5107;48.850;8.924;2022-09-09T07:43:15;96571.03;;;18.20;64.14
10135;BME280;5107;48.850;8.924;2022-09-09T07:45:45;96571.47;;;18.35;63.23
10135;BME280;5107;48.850;8.924;2022-09-09T07:48:13;96573.53;;;18.33;63.62
10135;BME280;5107;48.850;8.924;2022-09-09T07:50:40;96580.94;;;18.13;63.46
10135;BME280;5107;48.850;8.924;2022-09-09T07:53:09;96562.88;;;18.51;63.89
10135;BME280;5107;48.850;8.924;2022-09-09T07:55:36;96574.59;;;18.32;62.97
10135;BME280;5107;48.850;8.924;2022-09-09T07:58:04;96574.69;;;18.01;63.80
10135;BME280;5107;48.850;8.924;2022-09-09T08:00:32;96582.13;;;18.35;64.00
10135;BME280;5107;48.850;8.924;2022-09-09T08:03:00;96586.00;;;18.39;62.76
10135;BME280;5107;48.850;8.924;2022-09-09T08:05:28;96579.91;;;18.50;62.50
10135;BME280;5107;48.850;8.924;2022-09-09T08:07:55;96571.25;;;18.55;62.52
10135;BME280;5107;48.850;8.924;2022-09-09T08:10:24;96576.72;;;18.97;61.95
10135;BME280;5107;48.850;8.924;2022-09-09T08:12:53;96588.03;;;18.92;62.35
10135;BME280;5107;48.850;8.924;2022-09-09T08:15:21;96595.47;;;18.90;62.40
10135;BME280;5107;48.850;8.924;2022-09-09T08:17:48;96600.22;;;18.70;62.36
10135;BME280;5107;48.850;8.924;2022-09-09T08:20:15;96602.28;;;18.68;61.80
10135;BME280;5107;48.850;8.924;2022-09-09T08:22:42;96599.69;;;18.98;61.89
10135;BME280;5107;48.850;8.924;2022-09-09T08:25:10;96589.97;;;19.45;61.09
10135;BME280;5107;48.850;8.924;2022-09-09T08:27:39;96585.38;;;19.52;60.84
10135;BME280;5107;48.850;8.924;2022-09-09T08:30:08;96578.19;;;19.52;60.25
10135;BME280;5107;48.850;8.924;2022-09-09T08:32:36;96573.69;;;19.76;60.27
10135;BME280;5107;48.850;8.924;2022-09-09T08:35:04;96563.47;;;19.50;59.08
10135;BME280;5107;48.850;8.924;2022-09-09T08:37:32;96579.31;;;19.45;59.18
10135;BME280;5107;48.850;8.924;2022-09-09T08:39:59;96584.97;;;19.37;59.78
10135;BME280;5107;48.850;8.924;2022-09-09T08:42:40;96596.28;;;19.20;60.48
10135;BME280;5107;48.850;8.924;2022-09-09T08:45:26;96595.75;;;19.30;60.09
10135;BME280;5107;48.850;8.924;2022-09-09T08:48:18;96586.06;;;19.47;60.30
10135;BME280;5107;48.850;8.924;2022-09-09T08:50:49;96587.53;;;19.73;59.90
10135;BME280;5107;48.850;8.924;2022-09-09T08:53:23;96593.34;;;19.93;59.25
10135;BME280;5107;48.850;8.924;2022-09-09T08:55:53;96584.25;;;19.71;58.45
10135;BME280;5107;48.850;8.924;2022-09-09T08:58:31;96595.66;;;20.01;58.66
10135;BME280;5107;48.850;8.924;2022-09-09T09:04:33;96598.56;;;20.58;56.03
10135;BME280;5107;48.850;8.924;2022-09-09T09:07:16;96608.56;;;20.28;57.27
10135;BME280;5107;48.850;8.924;2022-09-09T09:09:56;96594.78;;;20.82;56.19
10135;BME280;5107;48.850;8.924;2022-09-09T09:12:29;96590.78;;;20.33;54.76
10135;BME280;5107;48.850;8.924;2022-09-09T09:14:59;96596.22;;;19.80;56.01
10135;BME280;5107;48.850;8.924;2022-09-09T09:17:28;96596.00;;;19.40;57.38
10135;BME280;5107;48.850;8.924;2022-09-09T09:19:59;96589.63;;;19.83;55.56
10135;BME280;5107;48.850;8.924;2022-09-09T09:22:44;96588.00;;;20.28;56.08
10135;BME280;5107;48.850;8.924;2022-09-09T09:25:19;96596.59;;;20.07;55.90
10135;BME280;5107;48.850;8.924;2022-09-09T09:27:57;96585.31;;;19.70;57.97
10135;BME280;5107;48.850;8.924;2022-09-09T09:30:32;96582.81;;;19.15;58.20
10135;BME280;5107;48.850;8.924;2022-09-09T09:33:12;96580.66;;;19.36;58.52
10135;BME280;5107;48.850;8.924;2022-09-09T09:35:43;96565.56;;;19.94;55.69
10135;BME280;5107;48.850;8.924;2022-09-09T09:38:17;96569.38;;;20.57;51.61
10135;BME280;5107;48.850;8.924;2022-09-09T09:40:53;96569.09;;;20.70;52.32
10135;BME280;5107;48.850;8.924;2022-09-09T09:43:27;96584.59;;;21.08;53.87
10135;BME280;5107;48.850;8.924;2022-09-09T09:45:57;96562.19;;;20.57;49.58
10135;BME280;5107;48.850;8.924;2022-09-09T09:48:26;96570.81;;;20.36;51.46
10135;BME280;5107;48.850;8.924;2022-09-09T09:50:55;96566.50;;;19.88;52.94
10135;BME280;5107;48.850;8.924;2022-09-09T09:53:27;96568.31;;;19.53;55.10
10135;BME280;5107;48.850;8.924;2022-09-09T09:55:59;96561.53;;;19.39;57.93
10135;BME280;5107;48.850;8.924;2022-09-09T09:58:29;96573.47;;;19.36;58.59
10135;BME280;5107;48.850;8.924;2022-09-09T10:01:00;96563.22;;;19.63;54.72
10135;BME280;5107;48.850;8.924;2022-09-09T10:03:32;96567.19;;;20.19;53.44
10135;BME280;5107;48.850;8.924;2022-09-09T10:06:04;96563.91;;;20.63;53.52
10135;BME280;5107;48.850;8.924;2022-09-09T10:08:43;96554.28;;;20.91;51.63
10135;BME280;5107;48.850;8.924;2022-09-09T10:11:28;96561.91;;;20.70;52.98
10135;BME280;5107;48.850;8.924;2022-09-09T10:14:05;96559.75;;;21.24;54.07
10135;BME280;5107;48.850;8.924;2022-09-09T10:16:55;96562.72;;;21.56;49.79
10135;BME280;5107;48.850;8.924;2022-09-09T10:19:30;96558.31;;;20.93;49.54
10135;BME280;5107;48.850;8.924;2022-09-09T10:22:19;96556.50;;;20.42;51.57
10135;BME280;5107;48.850;8.924;2022-09-09T10:25:36;96560.94;;;20.36;52.61
10135;BME280;5107;48.850;8.924;2022-09-09T10:28:37;96556.63;;;20.35;52.01
10135;BME280;5107;48.850;8.924;2022-09-09T10:31:18;96546.97;;;20.23;51.44
10135;BME280;5107;48.850;8.924;2022-09-09T10:34:02;96556.41;;;20.14;49.70
10135;BME280;5107;48.850;8.924;2022-09-09T10:36:34;96560.38;;;19.99;48.70
10135;BME280;5107;48.850;8.924;2022-09-09T10:39:23;96556.50;;;20.19;49.01
10135;BME280;5107;48.850;8.924;2022-09-09T10:42:04;96566.94;;;20.55;51.84
10135;BME280;5107;48.850;8.924;2022-09-09T10:44:50;96556.97;;;21.19;51.71
10135;BME280;5107;48.850;8.924;2022-09-09T10:47:59;96562.50;;;21.29;50.90
10135;BME280;5107;48.850;8.924;2022-09-09T10:50:45;96570.06;;;20.64;52.02
10135;BME280;5107;48.850;8.924;2022-09-09T10:53:23;96581.03;;;19.81;53.62
10135;BME280;5107;48.850;8.924;2022-09-09T10:55:59;96592.53;;;19.40;55.15
10135;BME280;5107;48.850;8.924;2022-09-09T10:58:33;96610.97;;;19.11;56.60
10135;BME280;5107;48.850;8.924;2022-09-09T11:01:14;96602.22;;;18.38;58.95
10135;BME280;5107;48.850;8.924;2022-09-09T11:03:43;96609.03;;;18.09;60.51
10135;BME280;5107;48.850;8.924;2022-09-09T11:06:19;96618.25;;;17.88;61.97
10135;BME280;5107;48.850;8.924;2022-09-09T11:08:47;96610.28;;;17.57;63.39
10135;BME280;5107;48.850;8.924;2022-09-09T11:11:19;96613.84;;;17.44;63.40
10135;BME280;5107;48.850;8.924;2022-09-09T11:13:55;96626.78;;;17.40;62.96
10135;BME280;5107;48.850;8.924;2022-09-09T11:16:29;96631.75;;;17.30;63.50
10135;BME280;5107;48.850;8.924;2022-09-09T11:19:02;96634.78;;;17.34;64.79
10135;BME280;5107;48.850;8.924;2022-09-09T11:21:36;96645.31;;;17.16;65.98
10135;BME280;5107;48.850;8.924;2022-09-09T11:24:10;96643.78;;;16.95;68.24
10135;BME280;5107;48.850;8.924;2022-09-09T11:26:44;96643.00;;;16.88;69.85
10135;BME280;5107;48.850;8.924;2022-09-09T11:29:44;96642.69;;;16.64;71.53
10135;BME280;5107;48.850;8.924;2022-09-09T11:32:40;96637.38;;;16.64;72.33
10135;BME280;5107;48.850;8.924;2022-09-09T11:35:29;96632.00;;;16.58;71.86
10135;BME280;5107;48.850;8.924;2022-09-09T11:38:19;96630.78;;;16.74;72.19
10135;BME280;5107;48.850;8.924;2022-09-09T11:40:56;96616.44;;;16.75;71.51
10135;BME280;5107;48.850;8.924;2022-09-09T11:43:30;96617.56;;;17.05;72.03
10135;BME280;5107;48.850;8.924;2022-09-09T11:46:01;96597.88;;;17.75;69.99
10135;BME280;5107;48.850;8.924;2022-09-09T11:48:33;96597.78;;;17.57;67.45
10135;BME280;5107;48.850;8.924;2022-09-09T11:51:06;96582.44;;;17.84;63.64
10135;BME280;5107;48.850;8.924;2022-09-09T11:53:47;96574.97;;;18.72;61.58
10135;BME280;5107;48.850;8.924;2022-09-09T11:56:25;96567.47;;;18.99;59.54
10135;BME280;5107;48.850;8.924;2022-09-09T11:59:04;96564.88;;;19.22;57.30
10135;BME280;5107;48.850;8.924;2022-09-09T12:01:37;96563.34;;;19.68;56.89
10135;BME280;5107;48.850;8.924;2022-09-09T12:04:26;96560.31;;;19.53;56.47
10135;BME280;5107;48.850;8.924;2022-09-09T12:06:59;96568.72;;;20.15;55.99
10135;BME280;5107;48.850;8.924;2022-09-09T12:09:46;96558.81;;;20.50;53.70
10135;BME280;5107;48.850;8.924;2022-09-09T12:12:31;96556.00;;;20.97;55.45
10135;BME280;5107;48.850;8.924;2022-09-09T12:17:48;96543.53;;;20.74;51.73
10135;BME280;5107;48.850;8.924;2022-09-09T12:20:20;96544.81;;;20.71;50.96
10135;BME280;5107;48.850;8.924;2022-09-09T12:23:19;96538.41;;;20.72;49.07
10135;BME280;5107;48.850;8.924;2022-09-09T12:26:23;96540.19;;;21.24;50.00
10135;BME280;5107;48.850;8.924;2022-09-09T12:29:02;96534.84;;;21.24;50.03
10135;BME280;5107;48.850;8.924;2022-09-09T12:31:38;96538.97;;;21.03;49.36
10135;BME280;5107;48.850;8.924;2022-09-09T12:34:13;96528.44;;;20.96;48.97
10135;BME280;5107;48.850;8.924;2022-09-09T12:36:44;96533.22;;;21.11;48.32
10135;BME280;5107;48.850;8.924;2022-09-09T12:39:19;96517.50;;;20.98;49.79
10135;BME280;5107;48.850;8.924;2022-09-09T12:41:54;96543.19;;;20.99;50.75
10135;BME280;5107;48.850;8.924;2022-09-09T12:44:23;96544.28;;;20.46;53.08
10135;BME280;5107;48.850;8.924;2022-09-09T12:46:52;96536.06;;;20.76;52.61
10135;BME280;5107;48.850;8.924;2022-09-09T12:49:32;96538.34;;;20.56;52.86
10135;BME280;5107;48.850;8.924;2022-09-09T12:52:04;96535.59;;;20.39;52.28
10135;BME280;5107;48.850;8.924;2022-09-09T12:54:34;96524.69;;;20.05;52.95
10135;BME280;5107;48.850;8.924;2022-09-09T12:57:04;96524.78;;;20.22;53.60
10135;BME280;5107;48.850;8.924;2022-09-09T12:59:38;96526.50;;;20.28;52.82
10135;BME280;5107;48.850;8.924;2022-09-09T13:02:18;96527.69;;;20.09;53.84
10135;BME280;5107;48.850;8.924;2022-09-09T13:04:46;96528.88;;;19.90;54.40
10135;BME280;5107;48.850;8.924;2022-09-09T13:07:14;96528.34;;;20.51;52.99
10135;BME280;5107;48.850;8.924;2022-09-09T13:09:42;96517.00;;;21.01;50.90
10135;BME280;5107;48.850;8.924;2022-09-09T13:12:15;96518.81;;;21.12;50.51
10135;BME280;5107;48.850;8.924;2022-09-09T13:14:45;96518.63;;;21.30;51.23
10135;BME280;5107;48.850;8.924;2022-09-09T13:17:21;96519.22;;;21.49;50.96
10135;BME280;5107;48.850;8.924;2022-09-09T13:19:49;96519.63;;;21.12;50.05
10135;BME280;5107;48.850;8.924;2022-09-09T13:22:26;96510.91;;;21.17;48.58
10135;BME280;5107;48.850;8.924;2022-09-09T13:25:03;96515.63;;;20.98;49.56
10135;BME280;5107;48.850;8.924;2022-09-09T13:27:34;96513.72;;;20.42;50.55
10135;BME280;5107;48.850;8.924;2022-09-09T13:30:21;96508.56;;;20.52;51.76
10135;BME280;5107;48.850;8.924;2022-09-09T13:33:05;96508.03;;;21.07;48.66
10135;BME280;5107;48.850;8.924;2022-09-09T13:35:33;96502.81;;;21.00;48.94
10135;BME280;5107;48.850;8.924;2022-09-09T13:38:07;96499.41;;;20.76;49.70
10135;BME280;5107;48.850;8.924;2022-09-09T13:40:35;96507.69;;;20.47;49.64
10135;BME280;5107;48.850;8.924;2022-09-09T13:43:12;96498.63;;;20.36;50.30
10135;BME280;5107;48.850;8.924;2022-09-09T13:45:52;96501.88;;;20.38;50.82
10135;BME280;5107;48.850;8.924;2022-09-09T13:48:20;96503.28;;;20.17;51.28
10135;BME280;5107;48.850;8.924;2022-09-09T13:50:55;96506.22;;;20.16;51.35